createdAt,value
2023-03-29T00:00:37.192Z,101570.25
2023-03-29T00:03:09.705Z,101565.03
2023-03-29T00:05:42.329Z,101563.22
2023-03-29T00:08:14.897Z,101553.56
2023-03-29T00:10:44.837Z,101557.00
2023-03-29T00:13:16.118Z,101551.84
2023-03-29T00:15:46.888Z,101555.28
2023-03-29T00:18:20.819Z,101562.13
2023-03-29T00:20:58.380Z,101556.81
2023-03-29T00:23:30.348Z,101556.72
2023-03-29T00:26:00.923Z,101557.63
2023-03-29T00:28:31.500Z,101550.59
2023-03-29T00:31:07.774Z,101548.78
2023-03-29T00:33:40.654Z,101538.31
2023-03-29T00:36:12.649Z,101527.69
2023-03-29T00:38:43.031Z,101521.56
2023-03-29T00:41:13.166Z,101524.06
2023-03-29T00:43:59.330Z,101517.22
2023-03-29T00:46:30.709Z,101507.47
2023-03-29T00:49:09.065Z,101511.00
2023-03-29T00:51:41.459Z,101506.59
2023-03-29T00:54:16.001Z,101506.59
2023-03-29T00:56:49.969Z,101495.22
2023-03-29T00:59:23.686Z,101499.53
2023-03-29T01:01:56.218Z,101490.78
2023-03-29T01:04:33.033Z,101490.72
2023-03-29T01:07:07.298Z,101493.34
2023-03-29T01:09:39.802Z,101485.56
2023-03-29T01:12:15.154Z,101482.94
2023-03-29T01:14:49.022Z,101478.72
2023-03-29T01:17:22.076Z,101477.81
2023-03-29T01:20:02.397Z,101483.13
2023-03-29T01:22:39.774Z,101478.72
2023-03-29T01:25:19.503Z,101478.00
2023-03-29T01:27:57.775Z,101471.75
2023-03-29T01:30:31.595Z,101470.03
2023-03-29T01:33:05.608Z,101470.97
2023-03-29T01:35:43.915Z,101459.69
2023-03-29T01:38:18.845Z,101463.13
2023-03-29T01:40:48.618Z,101464.03
2023-03-29T01:43:27.354Z,101454.63
2023-03-29T01:46:05.609Z,101459.06
2023-03-29T01:48:43.370Z,101460.03
2023-03-29T01:51:17.804Z,101461.75
2023-03-29T01:53:56.695Z,101459.06
2023-03-29T01:56:28.899Z,101446.78
2023-03-29T01:59:06.886Z,101443.34
2023-03-29T02:01:41.332Z,101451.22
2023-03-29T02:04:13.940Z,101445.16
2023-03-29T02:06:45.070Z,101446.16
2023-03-29T02:09:15.607Z,101437.31
2023-03-29T02:11:47.708Z,101437.31
2023-03-29T02:14:20.260Z,101433.84
2023-03-29T02:16:50.270Z,101431.19
2023-03-29T02:19:24.234Z,101422.50
2023-03-29T02:22:02.127Z,101422.59
2023-03-29T02:24:33.859Z,101411.03
2023-03-29T02:27:04.909Z,101415.38
2023-03-29T02:29:37.330Z,101414.59
2023-03-29T02:32:16.125Z,101404.91
2023-03-29T02:34:53.230Z,101408.38
2023-03-29T02:37:24.704Z,101398.69
2023-03-29T02:39:55.651Z,101397.91
2023-03-29T02:42:27.575Z,101402.25
2023-03-29T02:45:03.081Z,101391.84
2023-03-29T02:47:38.063Z,101390.06
2023-03-29T02:50:10.715Z,101390.94
2023-03-29T02:52:44.050Z,101385.72
2023-03-29T02:55:19.147Z,101376.09
2023-03-29T02:57:48.921Z,101371.75
2023-03-29T03:00:23.480Z,101377.88
2023-03-29T03:02:53.619Z,101377.13
2023-03-29T03:05:24.096Z,101365.06
2023-03-29T03:07:53.898Z,101367.66
2023-03-29T03:10:23.688Z,101364.16
2023-03-29T03:12:53.606Z,101362.44
2023-03-29T03:15:26.615Z,101355.38
2023-03-29T03:17:57.358Z,101349.25
2023-03-29T03:20:27.441Z,101345.75
2023-03-29T03:22:57.879Z,101343.13
2023-03-29T03:25:28.953Z,101348.38
2023-03-29T03:27:58.959Z,101343.13
2023-03-29T03:30:31.865Z,101338.78
2023-03-29T03:33:01.757Z,101343.97
2023-03-29T03:35:31.533Z,101339.53
2023-03-29T03:38:01.928Z,101331.78
2023-03-29T03:40:32.448Z,101333.66
2023-03-29T03:43:02.292Z,101326.72
2023-03-29T03:45:36.166Z,101330.31
2023-03-29T03:48:06.106Z,101328.50
2023-03-29T03:50:35.936Z,101324.19
2023-03-29T03:53:05.696Z,101322.38
2023-03-29T03:55:35.542Z,101318.88
2023-03-29T03:58:05.311Z,101317.97
2023-03-29T04:00:37.803Z,101313.53
2023-03-29T04:03:07.695Z,101317.09
2023-03-29T04:05:42.086Z,101310.13
2023-03-29T04:08:12.756Z,101312.66
2023-03-29T04:10:42.633Z,101315.19
2023-03-29T04:13:13.055Z,101310.75
2023-03-29T04:15:46.306Z,101314.38
2023-03-29T04:18:17.149Z,101315.34
2023-03-29T04:20:50.136Z,101304.00
2023-03-29T04:23:20.208Z,101304.91
2023-03-29T04:25:50.338Z,101298.94
2023-03-29T04:28:20.104Z,101301.59
2023-03-29T04:30:52.567Z,101300.81
2023-03-29T04:33:25.040Z,101293.84
2023-03-29T04:35:54.902Z,101300.81
2023-03-29T04:38:26.873Z,101291.25
2023-03-29T04:40:57.160Z,101290.44
2023-03-29T04:43:27.054Z,101294.84
2023-03-29T04:45:59.705Z,101288.63
2023-03-29T04:48:31.784Z,101289.53
2023-03-29T04:51:02.304Z,101287.72
2023-03-29T04:53:32.252Z,101293.84
2023-03-29T04:56:02.774Z,101289.53
2023-03-29T04:58:32.868Z,101291.34
2023-03-29T05:01:06.811Z,101294.84
2023-03-29T05:03:36.676Z,101281.75
2023-03-29T05:06:07.785Z,101284.47
2023-03-29T05:08:39.167Z,101283.56
2023-03-29T05:11:10.522Z,101283.56
2023-03-29T05:13:41.071Z,101294.94
2023-03-29T05:16:14.043Z,101280.13
2023-03-29T05:18:46.177Z,101275.81
2023-03-29T05:21:15.983Z,101282.03
2023-03-29T05:23:45.985Z,101276.78
2023-03-29T05:26:15.777Z,101282.81
2023-03-29T05:28:46.247Z,101289.03
2023-03-29T05:31:20.262Z,101284.63
2023-03-29T05:33:50.648Z,101277.78
2023-03-29T05:36:21.785Z,101283.91
2023-03-29T05:38:51.553Z,101276.94
2023-03-29T05:41:21.420Z,101272.53
2023-03-29T05:43:51.454Z,101278.72
2023-03-29T05:46:23.812Z,101285.69
2023-03-29T05:48:53.665Z,101283.00
2023-03-29T05:51:24.555Z,101277.84
2023-03-29T05:53:54.518Z,101281.53
2023-03-29T05:56:25.033Z,101278.09
2023-03-29T05:58:57.189Z,101279.88
2023-03-29T06:01:29.679Z,101281.69
2023-03-29T06:03:59.653Z,101273.03
2023-03-29T06:06:29.687Z,101279.25
2023-03-29T06:08:59.488Z,101287.97
2023-03-29T06:11:29.391Z,101284.63
2023-03-29T06:13:59.140Z,101286.50
2023-03-29T06:16:32.721Z,101275.31
2023-03-29T06:19:05.585Z,101282.41
2023-03-29T06:21:35.406Z,101279.06
2023-03-29T06:24:05.170Z,101279.16
2023-03-29T06:26:35.475Z,101286.28
2023-03-29T06:29:05.295Z,101279.25
2023-03-29T06:31:38.920Z,101286.38
2023-03-29T06:34:08.730Z,101285.53
2023-03-29T06:36:39.419Z,101290.94
2023-03-29T06:39:09.934Z,101280.59
2023-03-29T06:41:39.791Z,101286.81
2023-03-29T06:44:10.503Z,101286.97
2023-03-29T06:46:42.952Z,101277.50
2023-03-29T06:49:12.916Z,101267.84
2023-03-29T06:51:42.792Z,101268.84
2023-03-29T06:54:20.257Z,101261.94
2023-03-29T06:56:50.277Z,101264.66
2023-03-29T06:59:20.106Z,101272.75
2023-03-29T07:01:54.172Z,101286.09
2023-03-29T07:04:25.267Z,101280.91
2023-03-29T07:07:01.724Z,101278.47
2023-03-29T07:09:32.779Z,101271.75
2023-03-29T07:12:03.233Z,101274.56
2023-03-29T07:14:33.656Z,101272.94
2023-03-29T07:17:10.708Z,101272.34
2023-03-29T07:19:40.515Z,101278.56
2023-03-29T07:22:11.359Z,101279.56
2023-03-29T07:24:41.553Z,101282.25
2023-03-29T07:27:12.285Z,101281.50
2023-03-29T07:29:42.331Z,101277.25
2023-03-29T07:32:14.733Z,101279.13
2023-03-29T07:34:45.270Z,101270.44
2023-03-29T07:37:15.117Z,101274.94
2023-03-29T07:39:44.937Z,101270.56
2023-03-29T07:42:14.728Z,101268.94
2023-03-29T07:44:44.597Z,101262.94
2023-03-29T07:47:17.095Z,101257.09
2023-03-29T07:49:46.878Z,101271.38
2023-03-29T07:52:17.152Z,101265.63
2023-03-29T07:54:46.983Z,101261.50
2023-03-29T07:57:16.902Z,101271.47
2023-03-29T07:59:47.023Z,101276.19
2023-03-29T08:02:19.863Z,101281.69
2023-03-29T08:04:50.362Z,101272.41
2023-03-29T08:07:21.938Z,101277.88
2023-03-29T08:09:52.015Z,101286.03
2023-03-29T08:12:23.796Z,101287.09
2023-03-29T08:14:54.809Z,101286.34
2023-03-29T08:17:28.045Z,101288.25
2023-03-29T08:19:57.870Z,101291.94
2023-03-29T08:22:29.350Z,101287.72
2023-03-29T08:24:59.132Z,101275.63
2023-03-29T08:27:29.327Z,101272.22
2023-03-29T08:29:59.185Z,101264.38
2023-03-29T08:32:31.931Z,101268.97
2023-03-29T08:35:04.015Z,101260.34
2023-03-29T08:37:35.098Z,101266.63
2023-03-29T08:40:05.779Z,101271.19
2023-03-29T08:43:08.843Z,101269.66
2023-03-29T08:45:45.537Z,101267.03
2023-03-29T08:48:24.218Z,101254.13
2023-03-29T08:50:57.310Z,101255.16
2023-03-29T08:53:32.169Z,101255.34
2023-03-29T08:56:06.005Z,101265.25
2023-03-29T08:58:38.492Z,101246.28
2023-03-29T09:01:11.814Z,101243.84
2023-03-29T09:03:48.381Z,101238.97
2023-03-29T09:06:23.226Z,101236.66
2023-03-29T09:08:54.949Z,101230.84
2023-03-29T09:11:37.911Z,101232.91
2023-03-29T09:14:22.569Z,101242.84
2023-03-29T09:17:00.734Z,101236.09
2023-03-29T09:19:43.332Z,101240.75
2023-03-29T09:22:22.696Z,101231.44
2023-03-29T09:25:04.752Z,101222.28
2023-03-29T09:27:37.981Z,101218.25
2023-03-29T09:30:26.778Z,101216.03
2023-03-29T09:32:59.683Z,101211.94
2023-03-29T09:35:35.187Z,101226.28
2023-03-29T09:38:05.905Z,101228.31
2023-03-29T09:40:41.120Z,101230.22
2023-03-29T09:43:15.253Z,101222.59
2023-03-29T09:45:46.194Z,101229.72
2023-03-29T09:48:18.358Z,101233.41
2023-03-29T09:50:54.244Z,101233.50
2023-03-29T09:53:25.154Z,101226.56
2023-03-29T09:55:55.601Z,101225.00
2023-03-29T09:58:28.072Z,101233.97
2023-03-29T10:01:04.166Z,101226.09
2023-03-29T10:03:35.387Z,101229.59
2023-03-29T10:06:12.917Z,101230.38
2023-03-29T10:08:47.206Z,101237.44
2023-03-29T10:11:24.395Z,101238.34
2023-03-29T10:13:59.588Z,101241.81
2023-03-29T10:16:33.427Z,101245.22
2023-03-29T10:19:21.881Z,101240.84
2023-03-29T10:21:55.780Z,101250.47
2023-03-29T10:24:27.517Z,101240.84
2023-03-29T10:27:01.863Z,101246.19
2023-03-29T10:29:39.831Z,101249.66
2023-03-29T10:32:18.690Z,101241.63
2023-03-29T10:34:49.902Z,101222.31
2023-03-29T10:37:24.119Z,101220.53
2023-03-29T10:39:55.081Z,101229.44
2023-03-29T10:42:28.854Z,101230.38
2023-03-29T10:45:00.527Z,101222.66
2023-03-29T10:47:35.214Z,101227.25
2023-03-29T10:50:10.034Z,101220.44
2023-03-29T10:52:43.135Z,101221.50
2023-03-29T10:55:16.162Z,101218.19
2023-03-29T10:57:57.212Z,101223.72
2023-03-29T11:00:35.176Z,101214.41
2023-03-29T11:03:22.643Z,101211.94
2023-03-29T11:06:00.002Z,101213.03
2023-03-29T11:08:45.866Z,101215.16
2023-03-29T11:11:31.226Z,101227.69
2023-03-29T11:14:09.552Z,101219.97
2023-03-29T11:16:47.115Z,101223.75
2023-03-29T11:19:51.765Z,101219.63
2023-03-29T11:22:27.002Z,101211.81
2023-03-29T11:25:29.729Z,101212.97
2023-03-29T11:28:04.856Z,101211.50
2023-03-29T11:30:41.746Z,101210.91
2023-03-29T11:33:23.346Z,101202.34
2023-03-29T11:36:07.298Z,101206.91
2023-03-29T11:38:45.174Z,101218.56
2023-03-29T11:41:21.812Z,101206.38
2023-03-29T11:46:37.404Z,101208.41
2023-03-29T11:49:17.038Z,101211.16
2023-03-29T11:51:53.871Z,101211.28
2023-03-29T11:54:29.578Z,101204.34
2023-03-29T11:57:07.399Z,101205.44
2023-03-29T11:59:43.991Z,101189.63
2023-03-29T12:02:22.437Z,101199.41
2023-03-29T12:04:56.107Z,101192.44
2023-03-29T12:07:32.830Z,101194.22
2023-03-29T12:10:09.789Z,101183.69
2023-03-29T12:12:47.920Z,101188.16
2023-03-29T12:15:22.006Z,101181.25
2023-03-29T12:18:02.894Z,101185.81
2023-03-29T12:20:35.947Z,101181.59
2023-03-29T12:23:06.237Z,101171.31
2023-03-29T12:25:44.351Z,101176.81
2023-03-29T12:28:52.515Z,101179.72
2023-03-29T12:31:31.946Z,101173.81
2023-03-29T12:34:23.996Z,101172.19
2023-03-29T12:37:11.866Z,101174.91
2023-03-29T12:39:53.660Z,101174.09
2023-03-29T12:42:25.220Z,101174.16
2023-03-29T12:45:08.523Z,101168.00
2023-03-29T12:47:47.866Z,101169.78
2023-03-29T12:50:29.426Z,101163.69
2023-03-29T12:53:08.224Z,101158.50
2023-03-29T12:55:52.530Z,101173.56
2023-03-29T12:58:40.416Z,101175.31
2023-03-29T13:01:25.615Z,101169.16
2023-03-29T13:04:00.331Z,101166.44
2023-03-29T13:06:34.041Z,101157.69
2023-03-29T13:09:06.022Z,101164.69
2023-03-29T13:11:43.499Z,101154.09
2023-03-29T13:14:19.164Z,101143.47
2023-03-29T13:16:51.838Z,101154.84
2023-03-29T13:19:33.086Z,101147.75
2023-03-29T13:22:20.632Z,101153.09
2023-03-29T13:25:07.171Z,101143.34
2023-03-29T13:27:48.425Z,101147.63
2023-03-29T13:30:26.997Z,101138.72
2023-03-29T13:33:30.305Z,101151.94
2023-03-29T13:36:09.940Z,101147.41
2023-03-29T13:38:49.144Z,101145.66
2023-03-29T13:41:45.517Z,101130.66
2023-03-29T13:44:32.532Z,101128.03
2023-03-29T13:47:09.018Z,101127.16
2023-03-29T13:49:39.026Z,101120.09
2023-03-29T13:52:20.220Z,101114.00
2023-03-29T13:54:58.717Z,101120.19
2023-03-29T13:57:36.279Z,101113.19
2023-03-29T14:00:18.323Z,101102.81
2023-03-29T14:02:55.343Z,101105.66
2023-03-29T14:05:31.173Z,101114.59
2023-03-29T14:08:10.862Z,101112.91
2023-03-29T14:10:44.655Z,101112.16
2023-03-29T14:13:16.176Z,101107.88
2023-03-29T14:15:48.856Z,101108.88
2023-03-29T14:18:26.449Z,101100.16
2023-03-29T14:20:58.641Z,101103.72
2023-03-29T14:23:33.519Z,101097.63
2023-03-29T14:26:10.867Z,101095.97
2023-03-29T14:28:48.156Z,101085.41
2023-03-29T14:31:22.455Z,101076.63
2023-03-29T14:33:55.425Z,101076.69
2023-03-29T14:36:26.609Z,101080.34
2023-03-29T14:39:03.123Z,101083.16
2023-03-29T14:41:34.482Z,101070.00
2023-03-29T14:44:09.780Z,101063.06
2023-03-29T14:46:42.454Z,101071.16
2023-03-29T14:49:13.422Z,101067.69
2023-03-29T14:51:46.789Z,101067.78
2023-03-29T14:54:25.262Z,101062.63
2023-03-29T14:56:55.616Z,101059.16
2023-03-29T14:59:30.162Z,101055.69
2023-03-29T15:02:03.780Z,101051.31
2023-03-29T15:04:39.217Z,101056.63
2023-03-29T15:07:09.969Z,101047.84
2023-03-29T15:09:44.565Z,101050.50
2023-03-29T15:12:19.232Z,101041.72
2023-03-29T15:14:51.431Z,101039.94
2023-03-29T15:17:42.979Z,101032.97
2023-03-29T15:20:21.621Z,101038.28
2023-03-29T15:23:02.126Z,101033.03
2023-03-29T15:25:40.202Z,101035.75
2023-03-29T15:28:27.921Z,101033.97
2023-03-29T15:33:38.382Z,101026.88
2023-03-29T15:36:10.410Z,101020.72
2023-03-29T15:38:44.743Z,101022.50
2023-03-29T15:41:18.784Z,101010.16
2023-03-29T15:43:49.557Z,101011.94
2023-03-29T15:46:21.539Z,101012.81
2023-03-29T15:48:51.550Z,101003.88
2023-03-29T15:51:21.819Z,100994.16
2023-03-29T15:53:51.669Z,101012.63
2023-03-29T15:56:25.312Z,101009.94
2023-03-29T15:58:55.402Z,101010.75
2023-03-29T16:01:33.850Z,101000.97
2023-03-29T16:04:06.095Z,101005.28
2023-03-29T16:06:37.409Z,100993.78
2023-03-29T16:09:08.997Z,100990.22
2023-03-29T16:11:42.142Z,100977.81
2023-03-29T16:14:25.652Z,100976.09
2023-03-29T16:16:55.861Z,100973.41
2023-03-29T16:19:28.484Z,100977.78
2023-03-29T16:21:59.187Z,100973.28
2023-03-29T16:24:38.540Z,100971.47
2023-03-29T16:27:15.841Z,100963.50
2023-03-29T16:29:46.121Z,100957.28
2023-03-29T16:32:17.413Z,100954.63
2023-03-29T16:34:47.751Z,100953.69
2023-03-29T16:37:18.104Z,100945.72
2023-03-29T16:39:50.698Z,100938.56
2023-03-29T16:42:25.068Z,100932.28
2023-03-29T16:44:56.840Z,100929.53
2023-03-29T16:47:27.649Z,100927.66
2023-03-29T16:49:57.798Z,100926.66
2023-03-29T16:52:27.944Z,100922.09
2023-03-29T16:54:57.877Z,100922.81
2023-03-29T16:57:30.533Z,100913.84
2023-03-29T17:00:01.293Z,100913.66
2023-03-29T17:02:31.185Z,100913.53
2023-03-29T17:05:01.201Z,100909.84
2023-03-29T17:07:31.196Z,100915.00
2023-03-29T17:10:01.322Z,100898.16
2023-03-29T17:12:34.175Z,100901.63
2023-03-29T17:15:04.432Z,100905.09
2023-03-29T17:17:34.421Z,100902.41
2023-03-29T17:20:14.862Z,100901.41
2023-03-29T17:22:44.925Z,100907.53
2023-03-29T17:25:14.869Z,100897.75
2023-03-29T17:27:47.859Z,100912.75
2023-03-29T17:30:18.670Z,100908.25
2023-03-29T17:32:49.363Z,100906.38
2023-03-29T17:35:19.500Z,100911.63
2023-03-29T17:37:49.458Z,100909.84
2023-03-29T17:40:20.990Z,100913.31
2023-03-29T17:42:54.540Z,100910.59
2023-03-29T17:45:24.617Z,100914.88
2023-03-29T17:47:54.766Z,100908.66
2023-03-29T17:50:24.871Z,100914.69
2023-03-29T17:52:54.935Z,100921.66
2023-03-29T17:55:24.837Z,100917.13
2023-03-29T17:57:57.382Z,100918.84
2023-03-29T18:00:27.550Z,100916.06
2023-03-29T18:03:01.161Z,100916.06
2023-03-29T18:05:31.206Z,100927.50
2023-03-29T18:08:01.080Z,100919.50
2023-03-29T18:10:31.449Z,100905.38
2023-03-29T18:13:06.350Z,100916.81
2023-03-29T18:15:39.376Z,100905.31
2023-03-29T18:18:09.345Z,100894.75
2023-03-29T18:20:39.291Z,100904.41
2023-03-29T18:23:14.470Z,100893.81
2023-03-29T18:25:44.397Z,100904.31
2023-03-29T18:28:16.831Z,100891.94
2023-03-29T18:30:46.713Z,100881.28
2023-03-29T18:33:16.667Z,100883.06
2023-03-29T18:35:51.985Z,100874.19
2023-03-29T18:38:23.408Z,100876.81
2023-03-29T18:40:53.600Z,100879.44
2023-03-29T18:43:26.093Z,100859.19
2023-03-29T18:45:58.453Z,100865.28
2023-03-29T18:48:28.579Z,100874.81
2023-03-29T18:50:59.326Z,100866.78
2023-03-29T18:53:29.218Z,100858.78
2023-03-29T18:55:59.577Z,100854.38
2023-03-29T18:58:33.347Z,100851.81
2023-03-29T19:01:05.028Z,100857.09
2023-03-29T19:03:36.155Z,100843.03
2023-03-29T19:06:07.636Z,100836.94
2023-03-29T19:08:39.903Z,100837.81
2023-03-29T19:11:12.116Z,100844.09
2023-03-29T19:13:46.543Z,100834.44
2023-03-29T19:16:16.690Z,100831.78
2023-03-29T19:18:46.998Z,100837.06
2023-03-29T19:21:17.068Z,100835.31
2023-03-29T19:23:47.137Z,100834.41
2023-03-29T19:26:17.090Z,100823.81
2023-03-29T19:28:49.598Z,100817.66
2023-03-29T19:31:23.493Z,100812.38
2023-03-29T19:33:53.639Z,100811.44
2023-03-29T19:36:23.785Z,100808.78
2023-03-29T19:38:54.433Z,100795.59
2023-03-29T19:41:29.059Z,100800.00
2023-03-29T19:44:01.646Z,100785.91
2023-03-29T19:46:31.741Z,100789.44
2023-03-29T19:49:07.766Z,100787.69
2023-03-29T19:51:37.745Z,100787.69
2023-03-29T19:54:09.402Z,100787.66
2023-03-29T19:59:43.690Z,100782.31
2023-03-29T20:02:17.220Z,100787.63
2023-03-29T20:04:47.456Z,100774.44
2023-03-29T20:07:17.353Z,100771.00
2023-03-29T20:09:47.831Z,100759.56
2023-03-29T20:12:20.222Z,100751.66
2023-03-29T20:14:52.824Z,100741.97
2023-03-29T20:17:22.761Z,100739.28
2023-03-29T20:19:54.189Z,100731.38
2023-03-29T20:22:26.218Z,100722.53
2023-03-29T20:24:56.496Z,100725.16
2023-03-29T20:27:26.518Z,100709.31
2023-03-29T20:29:59.417Z,100710.22
2023-03-29T20:32:29.323Z,100717.25
2023-03-29T20:35:04.510Z,100710.16
2023-03-29T20:37:34.528Z,100705.69
2023-03-29T20:40:05.662Z,100703.06
2023-03-29T20:42:36.947Z,100691.56
2023-03-29T20:45:18.790Z,100693.31
2023-03-29T20:47:50.675Z,100686.19
2023-03-29T20:50:26.448Z,100679.94
2023-03-29T20:52:57.130Z,100673.81
2023-03-29T20:55:27.511Z,100665.03
2023-03-29T20:57:58.448Z,100662.41
2023-03-29T21:00:33.826Z,100655.41
2023-03-29T21:03:04.257Z,100643.06
2023-03-29T21:05:36.314Z,100636.91
2023-03-29T21:08:06.764Z,100642.13
2023-03-29T21:10:36.746Z,100636.03
2023-03-29T21:13:06.609Z,100620.19
2023-03-29T21:15:40.871Z,100615.81
2023-03-29T21:18:12.665Z,100625.47
2023-03-29T21:20:42.576Z,100618.50
2023-03-29T21:23:12.547Z,100610.53
2023-03-29T21:25:44.016Z,100603.56
2023-03-29T21:28:13.962Z,100600.94
2023-03-29T21:30:46.646Z,100597.41
2023-03-29T21:33:16.648Z,100591.22
2023-03-29T21:35:46.634Z,100585.94
2023-03-29T21:38:16.639Z,100582.47
2023-03-29T21:40:46.578Z,100581.59
2023-03-29T21:43:17.976Z,100576.31
2023-03-29T21:46:07.086Z,100571.06
2023-03-29T21:48:37.201Z,100570.16
2023-03-29T21:51:07.730Z,100564.94
2023-03-29T21:53:37.840Z,100556.13
2023-03-29T21:56:08.658Z,100548.31
2023-03-29T21:58:39.668Z,100535.13
2023-03-29T22:01:13.070Z,100536.88
2023-03-29T22:03:43.811Z,100526.34
2023-03-29T22:06:18.738Z,100522.81
2023-03-29T22:08:54.169Z,100520.19
2023-03-29T22:11:25.928Z,100518.47
2023-03-29T22:13:55.950Z,100507.00
2023-03-29T22:16:28.683Z,100505.28
2023-03-29T22:18:58.549Z,100507.94
2023-03-29T22:21:33.596Z,100503.56
2023-03-29T22:24:03.940Z,100507.94
2023-03-29T22:26:38.503Z,100503.56
2023-03-29T22:29:08.406Z,100507.09
2023-03-29T22:31:42.439Z,100506.22
2023-03-29T22:34:12.453Z,100507.13
2023-03-29T22:36:42.430Z,100511.56
2023-03-29T22:39:13.638Z,100512.38
2023-03-29T22:41:43.607Z,100511.50
2023-03-29T22:44:13.524Z,100515.06
2023-03-29T22:46:46.110Z,100512.38
2023-03-29T22:49:18.932Z,100503.59
2023-03-29T22:51:49.178Z,100496.56
2023-03-29T22:54:19.098Z,100504.47
2023-03-29T22:56:53.527Z,100485.19
2023-03-29T22:59:23.690Z,100475.47
2023-03-29T23:01:56.717Z,100471.06
2023-03-29T23:04:27.230Z,100466.69
2023-03-29T23:06:57.482Z,100462.28
2023-03-29T23:09:32.758Z,100461.34
2023-03-29T23:12:02.722Z,100448.22
2023-03-29T23:14:34.114Z,100443.00
2023-03-29T23:17:06.640Z,100442.19
2023-03-29T23:19:36.813Z,100427.28
2023-03-29T23:22:06.892Z,100426.41
2023-03-29T23:24:36.816Z,100421.19
2023-03-29T23:27:06.910Z,100415.94
2023-03-29T23:29:38.107Z,100409.84
2023-03-29T23:32:10.863Z,100412.47
2023-03-29T23:34:41.154Z,100399.28
2023-03-29T23:37:11.189Z,100404.66
2023-03-29T23:39:42.084Z,100392.34
2023-03-29T23:42:12.325Z,100402.00
2023-03-29T23:44:44.338Z,100394.94
2023-03-29T23:47:17.063Z,100395.00
2023-03-29T23:49:47.063Z,100395.88
2023-03-29T23:52:17.687Z,100401.16
2023-03-29T23:54:47.639Z,100384.44
2023-03-29T23:57:17.708Z,100384.44
2023-03-29T23:59:47.745Z,100383.59
